Time;durP1;ratioP1;P1;durP2;ratioP2;P2;SDS_P1;SDS_P2;PMS_P1;PMS_P2;Temp;Humidity;BMP_temperature;BMP_pressure;BME280_temperature;BME280_humidity;BME280_pressure;Samples;Min_cycle;Max_cycle;Signal;HPM_P1;HPM_P2
2023/09/17 00:01:23;;;;;;;6.20;5.60;;;;;;;10.94;100.00;95959.00;7398992;19;20406;-91
2023/09/17 00:03:51;;;;;;;7.63;6.53;;;;;;;10.14;100.00;95806.53;7394739;19;20380;-92
2023/09/17 00:06:19;;;;;;;7.40;6.70;;;;;;;10.40;100.00;95845.00;7397780;19;20445;-92
2023/09/17 00:08:46;;;;;;;12.20;6.63;;;;;;;9.22;100.00;95656.91;7396981;19;20404;-91
2023/09/17 00:11:14;;;;;;;11.07;5.83;;;;;;;10.88;100.00;95887.09;7398717;19;20472;-92
2023/09/17 00:13:41;;;;;;;8.93;5.47;;;;;;;11.21;100.00;95933.63;7394306;19;20452;-92
2023/09/17 00:16:10;;;;;;;6.57;6.07;;;;;;;11.10;100.00;95943.97;7394876;19;20475;-92
2023/09/17 00:18:38;;;;;;;7.20;6.60;;;;;;;10.32;100.00;95863.31;7395784;19;20365;-92
2023/09/17 00:21:06;;;;;;;10.50;6.20;;;;;;;9.99;100.00;95860.06;7395536;19;20385;-92
2023/09/17 00:23:33;;;;;;;9.33;6.73;;;;;;;9.42;100.00;95790.53;7397050;19;20729;-92
2023/09/17 00:26:01;;;;;;;9.43;5.60;;;;;;;9.52;100.00;95822.84;7394492;19;20976;-92
2023/09/17 00:28:28;;;;;;;15.73;5.93;;;;;;;9.59;100.00;95846.78;7397277;19;20476;-92
2023/09/17 00:30:55;;;;;;;8.17;6.27;;;;;;;8.50;100.00;95669.81;7396170;19;20723;-92
2023/09/17 00:33:23;;;;;;;8.00;5.50;;;;;;;9.22;100.00;95801.97;7397011;19;20389;-92
2023/09/17 00:35:52;;;;;;;8.30;5.90;;;;;;;9.15;100.00;95767.44;7395261;19;20400;-92
2023/09/17 00:38:19;;;;;;;7.80;6.40;;;;;;;9.77;100.00;95848.88;7392972;19;20401;-92
2023/09/17 00:40:48;;;;;;;7.60;6.83;;;;;;;9.54;100.00;95807.44;7395445;19;20738;-92
2023/09/17 00:43:18;;;;;;;7.67;6.47;;;;;;;10.03;100.00;95879.44;7397429;19;20384;-92
2023/09/17 00:45:45;;;;;;;7.20;6.50;;;;;;;9.29;100.00;95744.16;7394998;19;20392;-92
2023/09/17 00:48:12;;;;;;;6.40;5.80;;;;;;;10.39;100.00;95910.28;7396558;19;20402;-91
2023/09/17 00:50:40;;;;;;;9.57;6.67;;;;;;;10.02;100.00;95848.84;7395953;19;20392;-92
2023/09/17 00:53:08;;;;;;;9.03;6.23;;;;;;;10.80;100.00;95951.47;7396807;19;20389;-92
2023/09/17 00:55:36;;;;;;;7.10;6.50;;;;;;;10.75;100.00;95956.22;7395123;19;20411;-92
2023/09/17 00:58:05;;;;;;;6.30;5.83;;;;;;;9.33;100.00;95752.16;7396722;19;20750;-92
2023/09/17 01:00:36;;;;;;;7.03;5.37;;;;;;;10.28;100.00;95925.88;7395508;19;20395;-92
2023/09/17 01:03:05;;;;;;;6.57;5.97;;;;;;;9.94;100.00;95905.19;7394476;19;20715;-92
2023/09/17 01:05:39;;;;;;;6.77;6.17;;;;;;;10.89;100.00;95991.00;7395329;19;20381;-91
2023/09/17 01:08:06;;;;;;;6.23;5.63;;;;;;;10.81;100.00;95997.19;7392946;19;20387;-92
2023/09/17 01:10:34;;;;;;;6.00;5.40;;;;;;;9.80;100.00;95867.78;7395252;19;20384;-92
2023/09/17 01:13:05;;;;;;;5.27;4.87;;;;;;;10.66;100.00;95935.97;7395093;19;20392;-91
2023/09/17 01:15:34;;;;;;;9.30;5.07;;;;;;;10.09;100.00;95838.47;7399788;19;20384;-90
2023/09/17 01:18:02;;;;;;;7.73;6.20;;;;;;;9.77;100.00;95806.63;7401298;19;20383;-91
2023/09/17 01:20:34;;;;;;;6.13;4.80;;;;;;;9.23;100.00;95742.06;7403717;19;20840;-91
2023/09/17 01:23:18;;;;;;;6.40;5.63;;;;;;;9.43;100.00;95784.13;7399430;19;20379;-91
2023/09/17 01:25:56;;;;;;;9.27;5.37;;;;;;;8.59;100.00;95667.84;7400767;19;20412;-90
2023/09/17 01:28:24;;;;;;;7.00;5.30;;;;;;;8.50;100.00;95669.03;7403014;19;20404;-91
2023/09/17 01:30:51;;;;;;;5.93;5.43;;;;;;;8.66;100.00;95685.72;7400478;19;20389;-91
2023/09/17 01:33:18;;;;;;;7.27;5.67;;;;;;;10.62;100.00;95964.19;7403471;19;20448;-91
2023/09/17 01:36:17;;;;;;;7.33;5.87;;;;;;;8.46;100.00;95636.53;7401258;19;20424;-91
2023/09/17 01:38:50;;;;;;;6.73;5.50;;;;;;;9.32;100.00;95801.50;7398353;19;20950;-91
2023/09/17 01:41:18;;;;;;;6.30;4.80;;;;;;;10.62;100.00;95955.50;7401643;19;20498;-91
2023/09/17 01:43:46;;;;;;;14.23;8.10;;;;;;;9.62;100.00;95798.66;7400919;19;20385;-91
2023/09/17 01:46:16;;;;;;;5.80;5.30;;;;;;;10.38;100.00;95882.34;7401398;19;20945;-91
2023/09/17 01:48:45;;;;;;;7.10;5.90;;;;;;;10.44;100.00;95901.38;7400853;19;20413;-91
2023/09/17 01:51:13;;;;;;;7.13;5.43;;;;;;;10.93;100.00;95958.25;7401459;19;20397;-91
2023/09/17 01:53:41;;;;;;;8.13;5.33;;;;;;;10.62;100.00;95906.03;7400433;19;20392;-91
2023/09/17 01:56:11;;;;;;;12.20;6.20;;;;;;;9.83;100.00;95783.41;7401167;19;20488;-91
2023/09/17 01:58:38;;;;;;;6.27;5.23;;;;;;;10.90;100.00;95961.56;7399890;19;20377;-91
2023/09/17 02:01:05;;;;;;;6.13;5.50;;;;;;;9.69;100.00;95796.19;7402201;19;20384;-91
2023/09/17 02:03:32;;;;;;;5.10;4.57;;;;;;;8.87;100.00;95698.81;7401204;19;20752;-91
2023/09/17 02:05:59;;;;;;;4.60;4.20;;;;;;;9.35;100.00;95779.75;7401766;19;20408;-91
2023/09/17 02:08:27;;;;;;;6.37;4.70;;;;;;;9.81;100.00;95816.53;7405696;19;20376;-90
2023/09/17 02:10:54;;;;;;;5.87;5.33;;;;;;;10.54;100.00;95896.38;7412270;19;20504;-90
2023/09/17 02:13:21;;;;;;;5.17;4.70;;;;;;;10.31;100.00;95879.50;7412812;19;20815;-91
2023/09/17 02:15:49;;;;;;;5.63;5.20;;;;;;;10.65;100.00;95913.28;7404055;19;20393;-91
2023/09/17 02:18:16;;;;;;;5.77;5.17;;;;;;;11.05;100.00;95968.00;7396555;19;20396;-91
2023/09/17 02:20:44;;;;;;;7.37;5.63;;;;;;;10.28;100.00;95919.78;7401510;19;20393;-91
2023/09/17 02:23:11;;;;;;;5.90;5.27;;;;;;;9.28;100.00;95760.31;7400775;19;20395;-91
2023/09/17 02:25:38;;;;;;;4.90;4.50;;;;;;;11.00;100.00;95992.06;7401426;19;20404;-91
2023/09/17 02:28:07;;;;;;;7.77;5.97;;;;;;;10.33;100.00;95887.88;7398901;19;20393;-91
2023/09/17 02:30:34;;;;;;;5.80;5.30;;;;;;;11.06;100.00;95988.06;7401492;19;20392;-91
2023/09/17 02:33:01;;;;;;;8.43;6.20;;;;;;;10.26;100.00;95858.59;7400660;19;20380;-91
2023/09/17 02:35:28;;;;;;;9.07;5.67;;;;;;;10.53;100.00;95897.47;7398748;19;20435;-91
2023/09/17 02:37:55;;;;;;;5.13;4.70;;;;;;;10.51;100.00;95870.59;7397380;19;20420;-91
2023/09/17 02:40:24;;;;;;;5.87;5.47;;;;;;;10.27;100.00;95841.63;7399130;19;20385;-91
2023/09/17 02:42:51;;;;;;;5.00;4.50;;;;;;;10.11;100.00;95838.13;7400314;19;20388;-91
2023/09/17 02:45:19;;;;;;;6.00;5.13;;;;;;;10.47;100.00;95882.19;7398632;19;20455;-91
2023/09/17 02:47:46;;;;;;;6.40;4.87;;;;;;;10.33;100.00;95887.88;7398498;19;20435;-91
2023/09/17 02:50:14;;;;;;;5.57;5.10;;;;;;;9.64;100.00;95807.00;7398635;19;20464;-91
2023/09/17 02:52:41;;;;;;;6.50;5.90;;;;;;;10.46;100.00;95955.44;7400041;19;20399;-91
2023/09/17 02:55:08;;;;;;;5.40;5.00;;;;;;;9.62;100.00;95785.44;7398119;19;20413;-91
2023/09/17 02:57:35;;;;;;;4.93;4.40;;;;;;;10.42;100.00;95911.53;7397935;19;20430;-91
2023/09/17 03:00:08;;;;;;;4.77;4.37;;;;;;;10.47;100.00;95938.47;7396759;19;20396;-90
2023/09/17 03:02:38;;;;;;;5.33;4.77;;;;;;;9.71;100.00;95794.75;7401542;19;20385;-90
2023/09/17 03:05:09;;;;;;;5.63;5.23;;;;;;;10.11;100.00;95848.69;7404066;19;20396;-91
2023/09/17 03:07:39;;;;;;;5.20;4.57;;;;;;;10.36;100.00;95881.91;7398237;19;20432;-91
2023/09/17 03:10:11;;;;;;;8.23;6.53;;;;;;;10.72;100.00;95933.13;7398332;19;20388;-91
2023/09/17 03:12:39;;;;;;;6.07;5.47;;;;;;;10.13;100.00;95846.47;7397802;19;20392;-91
2023/09/17 03:15:07;;;;;;;6.03;5.43;;;;;;;10.07;100.00;95836.16;7398724;19;20420;-91
2023/09/17 03:17:37;;;;;;;6.83;5.10;;;;;;;9.32;100.00;95745.34;7398555;19;20420;-91
2023/09/17 03:20:13;;;;;;;6.57;5.77;;;;;;;10.31;100.00;95919.91;7397424;19;20400;-91
2023/09/17 03:22:41;;;;;;;6.17;5.57;;;;;;;9.67;100.00;95796.53;7397728;19;20912;-90
2023/09/17 03:25:10;;;;;;;6.30;5.80;;;;;;;10.58;100.00;95918.41;7399595;19;20799;-90
2023/09/17 03:27:40;;;;;;;5.30;4.80;;;;;;;10.76;100.00;95923.41;7396422;19;20416;-90
2023/09/17 03:30:07;;;;;;;6.03;5.43;;;;;;;10.86;100.00;95946.72;7399527;19;20385;-91
2023/09/17 03:32:34;;;;;;;6.57;5.70;;;;;;;10.72;100.00;95928.59;7397644;19;20404;-91
2023/09/17 03:35:15;;;;;;;5.97;5.47;;;;;;;9.63;100.00;95765.88;7399138;19;20392;-91
2023/09/17 03:37:45;;;;;;;7.00;6.40;;;;;;;10.02;100.00;95868.09;7396154;19;20448;-91
2023/09/17 03:40:14;;;;;;;6.23;5.53;;;;;;;10.38;100.00;95921.97;7398425;19;20388;-91
2023/09/17 03:42:43;;;;;;;5.43;4.80;;;;;;;10.64;100.00;95932.91;7398199;19;20377;-91
2023/09/17 03:45:13;;;;;;;6.90;5.50;;;;;;;11.05;100.00;95996.34;7399499;19;20388;-91
2023/09/17 03:47:42;;;;;;;6.33;5.73;;;;;;;10.71;100.00;95935.00;7397038;19;20535;-91
2023/09/17 03:50:13;;;;;;;6.47;5.87;;;;;;;10.70;100.00;95948.56;7396900;19;20415;-91
2023/09/17 03:52:47;;;;;;;6.57;5.63;;;;;;;10.08;100.00;95842.97;7398487;19;20376;-91
2023/09/17 03:55:15;;;;;;;6.70;6.10;;;;;;;10.60;100.00;95904.84;7397134;19;20460;-91
2023/09/17 03:57:43;;;;;;;8.10;5.57;;;;;;;10.86;100.00;95923.69;7396878;19;20428;-91
2023/09/17 04:00:11;;;;;;;6.70;5.37;;;;;;;11.23;100.00;95989.66;7395181;19;20401;-91
2023/09/17 04:02:40;;;;;;;5.40;4.90;;;;;;;9.42;100.00;95710.59;7398567;19;20389;-91
2023/09/17 04:05:12;;;;;;;7.70;5.37;;;;;;;10.62;100.00;95913.19;7396878;19;20396;-91
2023/09/17 04:07:41;;;;;;;6.50;5.90;;;;;;;9.86;100.00;95788.00;7397130;19;20415;-91
2023/09/17 04:10:09;;;;;;;14.03;5.93;;;;;;;11.20;100.00;95964.63;7396955;19;20404;-91
2023/09/17 04:12:38;;;;;;;6.97;5.23;;;;;;;10.59;100.00;95885.56;7400354;19;20445;-91
2023/09/17 04:15:13;;;;;;;5.13;4.73;;;;;;;11.24;100.00;96015.03;7398739;19;20381;-91
2023/09/17 04:17:40;;;;;;;10.93;5.30;;;;;;;10.53;100.00;95934.47;7394683;19;20434;-91
2023/09/17 04:20:11;;;;;;;13.37;6.63;;;;;;;9.98;100.00;95851.34;7395625;19;20726;-91
2023/09/17 04:22:38;;;;;;;5.87;5.37;;;;;;;10.74;100.00;95983.78;7398777;19;20411;-91
2023/09/17 04:25:05;;;;;;;8.93;4.90;;;;;;;10.12;100.00;95874.00;7398016;19;20407;-91
2023/09/17 04:27:32;;;;;;;6.20;5.70;;;;;;;10.61;100.00;95946.03;7391801;19;20401;-91
2023/09/17 04:30:00;;;;;;;5.67;5.17;;;;;;;10.00;100.00;95858.94;7396903;19;20413;-91
2023/09/17 04:32:27;;;;;;;13.27;5.20;;;;;;;10.65;100.00;95938.97;7395614;19;20713;-91
2023/09/17 04:34:55;;;;;;;5.70;5.10;;;;;;;9.41;100.00;95762.59;7397007;19;20384;-91
2023/09/17 04:37:24;;;;;;;5.80;5.20;;;;;;;9.55;100.00;95807.09;7393639;19;20420;-90
2023/09/17 04:39:51;;;;;;;7.07;6.47;;;;;;;10.79;100.00;95997.53;7395823;19;20483;-91
2023/09/17 04:42:18;;;;;;;7.13;6.47;;;;;;;11.10;100.00;96023.34;7395793;19;20403;-91
2023/09/17 04:44:45;;;;;;;5.70;5.17;;;;;;;10.47;100.00;95958.84;7396676;19;20379;-91
2023/09/17 04:47:13;;;;;;;6.30;5.73;;;;;;;10.81;100.00;95997.19;7394220;19;20420;-90
2023/09/17 04:49:41;;;;;;;7.73;5.43;;;;;;;10.79;100.00;95994.13;7398281;19;20408;-91
2023/09/17 04:52:08;;;;;;;6.43;5.83;;;;;;;10.76;100.00;95978.94;7402415;19;20376;-91
2023/09/17 04:54:38;;;;;;;7.67;6.77;;;;;;;10.99;100.00;96011.69;7404193;19;20356;-90
2023/09/17 04:57:07;;;;;;;6.60;6.10;;;;;;;10.64;100.00;95977.84;7400360;19;20950;-90
2023/09/17 04:59:37;;;;;;;6.87;6.00;;;;;;;10.14;100.00;95893.69;7401591;19;20357;-90
2023/09/17 05:02:04;;;;;;;9.20;5.60;;;;;;;11.04;100.00;96022.03;7402858;19;20784;-90
2023/09/17 05:04:31;;;;;;;8.10;5.73;;;;;;;10.27;100.00;95895.22;7403862;19;20463;-91
2023/09/17 05:06:58;;;;;;;6.57;5.93;;;;;;;10.99;100.00;95995.06;7400748;19;20440;-91
2023/09/17 05:09:26;;;;;;;6.83;6.10;;;;;;;10.84;100.00;95988.59;7404131;19;20396;-91
2023/09/17 05:11:53;;;;;;;6.60;5.50;;;;;;;9.09;100.00;95705.50;7403166;19;20380;-91
2023/09/17 05:14:21;;;;;;;6.30;5.80;;;;;;;11.21;100.00;96007.75;7403647;19;20731;-91
2023/09/17 05:16:48;;;;;;;7.63;5.73;;;;;;;10.12;100.00;95863.44;7400753;19;20443;-91
2023/09/17 05:19:16;;;;;;;7.60;6.73;;;;;;;10.34;100.00;95907.91;7399726;19;20368;-91
2023/09/17 05:21:43;;;;;;;8.90;5.87;;;;;;;10.29;100.00;95903.63;7402090;19;20411;-91
2023/09/17 05:24:11;;;;;;;5.93;5.30;;;;;;;10.58;100.00;95938.78;7400602;19;20388;-91
2023/09/17 05:26:38;;;;;;;7.50;6.80;;;;;;;10.65;100.00;95945.03;7397773;19;20549;-92
2023/09/17 05:29:05;;;;;;;7.33;6.60;;;;;;;10.25;100.00;95878.19;7401418;19;20410;-92
2023/09/17 05:31:32;;;;;;;7.10;6.50;;;;;;;10.90;100.00;95964.22;7402354;19;20411;-92
2023/09/17 05:34:00;;;;;;;6.03;5.53;;;;;;;10.80;100.00;95955.97;7401846;19;20385;-92
2023/09/17 05:36:27;;;;;;;9.40;7.17;;;;;;;10.79;100.00;95944.63;7402440;19;20976;-93
2023/09/17 05:38:54;;;;;;;9.47;8.00;;;;;;;11.15;100.00;96004.56;7398930;19;20383;-91
2023/09/17 05:41:21;;;;;;;7.47;6.83;;;;;;;11.44;100.00;96031.78;7400225;19;20391;-91
2023/09/17 05:43:48;;;;;;;8.60;7.70;;;;;;;11.37;100.00;96007.78;7402448;19;20388;-91
2023/09/17 05:46:16;;;;;;;7.47;6.87;;;;;;;10.81;100.00;95915.97;7403503;19;20425;-92
2023/09/17 05:48:43;;;;;;;7.27;6.67;;;;;;;10.62;100.00;95863.75;7401967;19;20400;-91
2023/09/17 05:51:10;;;;;;;7.83;7.13;;;;;;;10.74;100.00;95881.44;7408158;19;20467;-91
2023/09/17 05:53:37;;;;;;;7.50;6.80;;;;;;;11.68;100.00;96015.78;7404023;19;20373;-91
2023/09/17 05:56:07;;;;;;;8.30;6.67;;;;;;;11.04;100.00;95924.16;7397523;19;20405;-91
2023/09/17 05:58:35;;;;;;;9.77;8.87;;;;;;;11.62;100.00;95972.13;7398551;19;20392;-91
2023/09/17 06:01:04;;;;;;;7.60;6.90;;;;;;;11.76;100.00;96006.91;7398419;19;20460;-91
2023/09/17 06:03:31;;;;;;;8.40;7.70;;;;;;;11.69;100.00;95979.47;7399633;19;20373;-91
2023/09/17 06:05:58;;;;;;;8.67;7.97;;;;;;;10.91;100.00;95861.84;7401322;19;20424;-92
2023/09/17 06:08:28;;;;;;;10.73;9.73;;;;;;;11.58;100.00;95979.19;7397725;19;20408;-92
2023/09/17 06:10:55;;;;;;;10.03;8.17;;;;;;;11.13;100.00;95927.41;7402049;19;20396;-91
2023/09/17 06:13:23;;;;;;;10.00;8.93;;;;;;;11.70;100.00;95988.94;7400647;19;20384;-92
2023/09/17 06:15:50;;;;;;;8.93;7.97;;;;;;;11.16;100.00;95883.63;7402118;19;20446;-93
2023/09/17 06:18:18;;;;;;;9.27;8.33;;;;;;;11.21;100.00;95921.19;7401074;19;20399;-93
2023/09/17 06:20:46;;;;;;;7.77;6.97;;;;;;;11.88;100.00;96027.25;7401729;19;20400;-93
2023/09/17 06:23:13;;;;;;;9.90;8.33;;;;;;;11.18;100.00;95919.22;7400941;19;20412;-94
2023/09/17 06:25:40;;;;;;;10.30;8.60;;;;;;;11.80;100.00;95997.19;7399438;19;20400;-93
2023/09/17 06:28:08;;;;;;;9.20;8.30;;;;;;;11.15;100.00;95876.81;7400074;19;20392;-92
2023/09/17 06:30:35;;;;;;;8.97;8.17;;;;;;;11.81;100.00;95977.53;7402238;19;20412;-92
2023/09/17 06:33:03;;;;;;;9.17;8.37;;;;;;;12.39;100.00;96036.03;7400210;19;20384;-93
2023/09/17 06:35:33;;;;;;;9.97;8.80;;;;;;;11.36;100.00;95866.75;7398255;19;20387;-92
2023/09/17 06:38:00;;;;;;;8.77;7.97;;;;;;;11.96;100.00;95917.69;7401596;19;20393;-93
2023/09/17 06:40:27;;;;;;;11.00;8.30;;;;;;;12.85;100.00;96022.25;7397431;19;20385;-93
2023/09/17 06:42:54;;;;;;;9.90;8.90;;;;;;;12.33;100.00;95912.06;7400289;19;20448;-93
2023/09/17 06:45:21;;;;;;;9.43;8.70;;;;;;;12.98;100.00;95991.81;7398387;19;20392;-93
2023/09/17 06:47:49;;;;;;;8.50;7.80;;;;;;;12.53;100.00;95899.56;7397556;19;20495;-93
2023/09/17 06:50:16;;;;;;;9.80;7.80;;;;;;;13.03;100.00;95946.41;7398447;19;20403;-93
2023/09/17 06:52:43;;;;;;;10.57;8.70;;;;;;;14.09;100.00;96072.41;7399584;19;20384;-92
2023/09/17 06:55:10;;;;;;;8.90;8.00;;;;;;;13.61;100.00;95978.97;7398978;19;20452;-93
2023/09/17 06:57:37;;;;;;;8.80;8.00;;;;;;;14.27;100.00;96034.69;7398591;19;20503;-93
2023/09/17 07:00:06;;;;;;;8.50;7.70;;;;;;;13.83;100.00;95950.09;7397109;19;20400;-93
2023/09/17 07:02:33;;;;;;;8.33;7.57;;;;;;;14.82;100.00;96070.50;7399720;19;20372;-93
2023/09/17 07:05:03;;;;;;;9.13;8.33;;;;;;;14.36;100.00;95982.78;7398196;19;20411;-93
2023/09/17 07:07:30;;;;;;;8.60;7.90;;;;;;;15.15;100.00;96085.00;7398751;19;20408;-93
2023/09/17 07:09:57;;;;;;;9.30;8.40;;;;;;;15.08;100.00;96045.72;7398960;19;20384;-93
2023/09/17 07:12:24;;;;;;;7.53;6.87;;;;;;;15.55;100.00;96127.00;7399005;19;20395;-93
2023/09/17 07:14:51;;;;;;;9.10;8.30;;;;;;;15.13;100.00;96068.63;7398533;19;20383;-93
2023/09/17 07:17:18;;;;;;;8.40;7.70;;;;;;;15.11;100.00;96057.59;7399257;19;20415;-93
2023/09/17 07:19:45;;;;;;;11.97;8.33;;;;;;;15.12;100.00;96019.16;7399084;19;20396;-93
2023/09/17 07:22:14;;;;;;;8.37;7.57;;;;;;;15.96;100.00;96087.84;7400128;19;20921;-93
2023/09/17 07:24:42;;;;;;;9.13;7.67;;;;;;;16.22;100.00;96074.38;7398968;19;20392;-93
2023/09/17 07:27:09;;;;;;;9.33;8.33;;;;;;;16.20;100.00;96022.53;7399039;19;20431;-93
2023/09/17 07:29:36;;;;;;;7.37;6.67;;;;;;;16.93;100.00;96076.81;7398376;19;20461;-94
2023/09/17 07:32:03;;;;;;;7.10;6.47;;;;;;;16.86;100.00;96010.00;7400322;19;20384;-93
2023/09/17 07:34:31;;;;;;;7.70;7.00;;;;;;;16.94;100.00;96064.97;7398794;19;20388;-94
2023/09/17 07:36:59;;;;;;;7.20;6.70;;;;;;;16.79;100.00;96052.69;7399478;19;20432;-94
2023/09/17 07:39:27;;;;;;;7.30;6.60;;;;;;;15.65;100.00;95839.31;7398195;19;20389;-93
2023/09/17 07:41:54;;;;;;;7.17;6.57;;;;;;;17.24;100.00;96051.41;7397616;19;20426;-94
2023/09/17 07:44:22;;;;;;;8.73;6.90;;;;;;;17.44;100.00;96046.50;7398568;19;20368;-93
2023/09/17 07:46:49;;;;;;;6.87;6.17;;;;;;;16.99;100.00;96039.84;7395543;19;20421;-94
2023/09/17 07:49:17;;;;;;;7.13;6.53;;;;;;;17.18;100.00;96031.50;7395474;19;20713;-93
2023/09/17 07:51:44;;;;;;;8.30;7.53;;;;;;;16.84;100.00;96023.75;7399863;19;20405;-93
2023/09/17 07:54:11;;;;;;;10.17;6.13;;;;;;;17.09;100.00;96066.59;7399174;19;20376;-93
2023/09/17 07:56:38;;;;;;;6.90;6.20;;;;;;;17.70;100.00;96080.22;7396247;19;20428;-93
2023/09/17 07:59:06;;;;;;;7.63;6.83;;;;;;;16.82;100.00;95990.53;7398589;19;20373;-93
2023/09/17 08:01:33;;;;;;;7.27;6.60;;;;;;;17.72;100.00;96072.56;7395176;19;20384;-93
2023/09/17 08:04:00;;;;;;;7.50;6.77;;;;;;;17.29;100.00;96005.59;7398019;19;20456;-93
2023/09/17 08:06:27;;;;;;;7.00;6.30;;;;;;;17.99;100.00;96084.47;7396741;19;20408;-93
2023/09/17 08:08:55;;;;;;;8.57;7.07;;;;;;;17.28;100.00;95988.03;7394849;19;20420;-94
2023/09/17 08:11:27;;;;;;;7.00;6.50;;;;;;;18.69;100.00;96148.41;7394838;19;20389;-94
2023/09/17 08:13:54;;;;;;;7.13;6.53;;;;;;;18.01;100.00;96065.38;7394836;19;20385;-94
2023/09/17 08:16:24;;;;;;;7.80;6.37;;;;;;;17.93;100.00;96027.16;7396639;19;20425;-93
2023/09/17 08:18:51;;;;;;;7.10;6.50;;;;;;;17.69;100.00;96023.28;7399568;19;20396;-93
2023/09/17 08:21:18;;;;;;;7.50;6.90;;;;;;;17.29;100.00;96018.97;7394768;19;20926;-94
2023/09/17 08:23:46;;;;;;;6.60;6.00;;;;;;;17.60;100.00;96070.97;7399032;19;20389;-94
2023/09/17 08:26:13;;;;;;;6.27;5.87;;;;;;;17.03;100.00;95971.94;7395933;19;20411;-93
2023/09/17 08:28:43;;;;;;;7.10;6.50;;;;;;;16.73;100.00;95972.19;7399674;19;20389;-94
2023/09/17 08:31:11;;;;;;;6.27;5.77;;;;;;;17.16;100.00;96028.47;7396113;19;20456;-93
2023/09/17 08:33:38;;;;;;;7.50;7.00;;;;;;;16.55;100.00;95961.38;7399927;19;20381;-93
2023/09/17 08:36:06;;;;;;;7.57;6.90;;;;;;;17.18;100.00;96068.91;7395455;19;20408;-94
2023/09/17 08:38:32;;;;;;;7.57;6.97;;;;;;;17.11;100.00;96052.88;7396926;19;20397;-94
2023/09/17 08:41:01;;;;;;;7.83;7.23;;;;;;;17.67;100.00;96134.44;7396005;19;20383;-93
2023/09/17 08:43:28;;;;;;;6.70;6.30;;;;;;;17.13;100.00;96031.88;7399288;19;20408;-94
2023/09/17 08:45:56;;;;;;;7.17;6.67;;;;;;;18.23;100.00;96133.84;7399167;19;20436;-93
2023/09/17 08:48:23;;;;;;;7.90;6.37;;;;;;;18.20;100.00;96101.72;7397338;19;20389;-93
2023/09/17 08:50:51;;;;;;;6.57;6.07;;;;;;;18.50;100.00;96079.94;7397806;19;20459;-94
2023/09/17 08:53:28;;;;;;;6.83;6.33;;;;;;;18.29;100.00;96037.84;7395005;19;20394;-94
2023/09/17 08:55:58;;;;;;;5.80;5.30;;;;;;;18.64;100.00;96093.34;7394496;19;20400;-93
2023/09/17 08:58:38;;;;;;;6.90;6.00;;;;;;;18.04;100.00;96032.53;7394926;19;20411;-94
2023/09/17 09:01:10;;;;;;;6.33;5.73;;;;;;;18.97;100.00;96113.59;7394155;19;20420;-93
2023/09/17 09:03:39;;;;;;;6.23;5.73;;;;;;;18.86;100.00;96048.53;7396702;19;20384;-93
2023/09/17 09:06:09;;;;;;;6.40;5.90;;;;;;;18.78;100.00;96074.56;7392811;19;20409;-93
2023/09/17 09:08:37;;;;;;;6.27;5.67;;;;;;;18.38;100.00;95998.09;7396428;19;20380;-94
2023/09/17 09:11:05;;;;;;;7.10;6.10;;;;;;;18.56;100.00;96024.81;7395304;19;20397;-94
2023/09/17 09:13:33;;;;;;;6.20;5.70;;;;;;;19.11;100.00;96043.88;7398086;19;20381;-94
2023/09/17 09:16:00;;;;;;;6.40;5.90;;;;;;;18.55;100.00;95954.44;7400004;19;20396;-93
2023/09/17 09:18:27;;;;;;;5.73;5.27;;;;;;;19.32;100.00;96018.13;7398339;19;20377;-93
2023/09/17 09:20:55;;;;;;;5.90;5.17;;;;;;;19.45;100.00;96029.94;7396321;19;20388;-94
2023/09/17 09:23:23;;;;;;;7.63;7.00;;;;;;;19.35;100.00;96017.34;7395686;19;20724;-94
2023/09/17 09:25:50;;;;;;;7.13;6.40;;;;;;;18.50;100.00;95898.63;7399351;19;20401;-94
2023/09/17 09:28:17;;;;;;;7.40;6.80;;;;;;;19.89;100.00;96111.75;7396928;19;20412;-94
2023/09/17 09:30:45;;;;;;;6.93;6.40;;;;;;;18.94;100.00;95953.56;7399251;19;20416;-94
2023/09/17 09:33:13;;;;;;;5.87;5.40;;;;;;;18.58;100.00;95913.53;7400395;19;20418;-94
2023/09/17 09:35:40;;;;;;;6.33;5.83;;;;;;;19.05;100.00;95997.19;7399026;19;20377;-94
2023/09/17 09:38:07;;;;;;;5.80;5.40;;;;;;;20.09;100.00;96147.69;7409074;19;20425;-94
2023/09/17 09:40:37;;;;;;;6.90;6.30;;;;;;;19.47;100.00;96033.75;7408447;19;20400;-94
2023/09/17 09:43:04;;;;;;;6.60;6.00;;;;;;;19.92;100.00;96089.50;7409308;19;20377;-94
2023/09/17 09:45:32;;;;;;;5.97;5.47;;;;;;;19.35;100.00;95979.81;7406239;19;20388;-94
2023/09/17 09:47:59;;;;;;;6.27;5.77;;;;;;;20.19;100.00;96109.28;7403231;19;20380;-94
2023/09/17 09:50:30;;;;;;;6.67;6.07;;;;;;;19.84;100.00;96069.22;7404505;19;20401;-94
2023/09/17 09:52:57;;;;;;;6.97;6.37;;;;;;;19.25;100.00;95962.63;7409026;19;20380;-94
2023/09/17 09:55:27;;;;;;;7.37;6.73;;;;;;;19.98;100.00;96050.34;7411034;19;20472;-94
2023/09/17 09:57:55;;;;;;;6.80;6.30;;;;;;;20.03;100.00;96045.34;7409964;19;20420;-94
2023/09/17 10:00:26;;;;;;;7.40;5.70;;;;;;;20.52;100.00;96104.47;7407615;19;20384;-94
2023/09/17 10:02:54;;;;;;;6.47;5.97;;;;;;;19.96;100.00;95985.56;7409268;19;20397;-94
2023/09/17 10:05:40;;;;;;;5.73;5.30;;;;;;;20.77;100.00;96120.38;7410048;19;20456;-94
2023/09/17 10:08:12;;;;;;;5.27;4.90;;;;;;;20.61;100.00;96085.97;7411587;19;20399;-94
2023/09/17 10:10:41;;;;;;;6.00;5.60;;;;;;;19.46;100.00;95924.19;7405834;19;20388;-94
2023/09/17 10:13:12;;;;;;;5.90;5.50;;;;;;;20.55;100.00;96079.47;7405201;19;20455;-94
2023/09/17 10:15:41;;;;;;;6.40;5.93;;;;;;;20.69;100.00;96108.91;7407299;19;20734;-94
2023/09/17 10:18:12;;;;;;;6.70;6.00;;;;;;;19.53;100.00;95918.03;7409526;19;20388;-95
2023/09/17 10:20:42;;;;;;;6.10;5.50;;;;;;;20.86;100.00;96115.31;7409491;19;20380;-94
2023/09/17 10:23:12;;;;;;;6.50;6.00;;;;;;;20.46;100.00;96031.59;7415185;19;20375;-95
2023/09/17 10:25:41;;;;;;;6.63;6.03;;;;;;;21.16;100.00;96128.84;7419338;19;20389;-95
2023/09/17 10:28:10;;;;;;;5.60;5.20;;;;;;;21.26;100.00;96108.41;7416552;19;20372;-95
2023/09/17 10:30:38;;;;;;;6.90;5.40;;;;;;;20.71;100.00;96017.94;7419433;19;20411;-95
2023/09/17 10:33:09;;;;;;;6.17;5.67;;;;;;;20.38;100.00;95944.16;7418160;19;20376;-96
2023/09/17 10:35:38;;;;;;;6.47;5.97;;;;;;;20.46;100.00;95955.63;7430346;19;20425;-94
2023/09/17 10:38:07;;;;;;;5.70;5.30;;;;;;;21.71;100.00;96114.41;7425222;19;20401;-94
2023/09/17 10:40:35;;;;;;;5.97;5.47;;;;;;;21.30;100.00;96086.84;7416011;19;20495;-95
2023/09/17 10:43:05;;;;;;;5.80;5.30;;;;;;;21.61;100.00;96101.06;7415889;19;20381;-95
2023/09/17 10:45:37;;;;;;;6.17;5.43;;;;;;;21.10;100.00;96009.44;7417734;19;20380;-94
2023/09/17 10:48:06;;;;;;;5.67;5.30;;;;;;;22.03;100.00;96150.91;7415737;19;20792;-95
2023/09/17 10:50:37;;;;;;;7.37;6.87;;;;;;;21.03;100.00;96014.91;7406264;19;20536;-95
2023/09/17 10:53:04;;;;;;;5.37;4.97;;;;;;;20.94;100.00;96001.94;7407801;19;20384;-94
2023/09/17 10:55:40;;;;;;;5.83;5.40;;;;;;;20.61;100.00;95997.31;7403803;19;20419;-95
2023/09/17 10:58:24;;;;;;;6.27;5.80;;;;;;;21.52;100.00;96131.94;7403231;19;20773;-95
2023/09/17 11:00:53;;;;;;;6.03;5.47;;;;;;;21.22;100.00;96043.09;7402429;19;20385;-95
2023/09/17 11:03:23;;;;;;;6.63;6.07;;;;;;;20.99;100.00;95960.41;7402447;19;20392;-95
2023/09/17 11:05:53;;;;;;;6.20;5.80;;;;;;;22.25;100.00;96095.59;7403171;19;20369;-95
2023/09/17 11:08:20;;;;;;;6.17;5.57;;;;;;;22.49;100.00;96111.81;7404722;19;20781;-94
2023/09/17 11:10:48;;;;;;;5.57;5.17;;;;;;;22.61;100.00;96108.53;7402249;19;20396;-95
2023/09/17 11:13:15;;;;;;;5.43;5.03;;;;;;;22.02;100.00;96133.22;7402858;19;20389;-94
2023/09/17 11:15:42;;;;;;;5.53;5.13;;;;;;;21.69;100.00;96032.53;7401892;19;20376;-95
2023/09/17 11:18:11;;;;;;;5.43;5.00;;;;;;;23.04;100.00;96169.88;7404384;19;20372;-95
2023/09/17 11:21:17;;;;;;;5.87;5.37;;;;;;;22.66;100.00;96079.16;7404568;19;20384;-95
2023/09/17 11:23:46;;;;;;;5.40;5.00;;;;;;;23.59;100.00;96156.53;7401101;19;20395;-94
2023/09/17 11:26:19;;;;;;;4.97;4.60;;;;;;;23.10;100.00;96031.41;7401952;19;20465;-95
2023/09/17 11:28:55;;;;;;;5.10;4.60;;;;;;;23.70;100.00;96123.94;7404180;19;20392;-95
2023/09/17 11:31:26;;;;;;;5.10;4.50;;;;;;;22.70;100.00;95903.88;7404304;19;20384;-95
2023/09/17 11:33:55;;;;;;;5.10;4.70;;;;;;;22.98;98.96;95975.41;7405751;19;20482;-94